Elgin, Texas
Current Conditions -  °F | °C
As of 9:55 PM on Saturday 25 Oct 2014 (Local Time) from KEDC Reporting Station
Clear Clear  
Wind Chill: 72°   Ceiling: Unl
Heat Index: 72°   Visibility: 10mi
Dew Point: 59°   Wind: 0mph
Humidity: 64%   Direction: NA
Pressure: 30.1"   Gusts: NA
Location:  30.35°N, 97.37°W
Report Text: KEDC 260255Z AUTO 00000KT 10SM CLR 22/15 A3010 RMK AO2
Loading
Personal Weather Stations






























Interactive Weather Map
Tropical Storm Tracking
New forecast layout! Learn more

10-Day Weather Forecast

Advertisements
Track Severe Weather on mobile